createdAt,value
2017-10-16T00:00:26.634Z,97996.00
2017-10-16T00:02:54.136Z,97994.66
2017-10-16T00:05:22.107Z,97995.50
2017-10-16T00:07:49.634Z,97996.61
2017-10-16T00:10:17.153Z,97998.60
2017-10-16T00:12:44.739Z,98000.55
2017-10-16T00:15:12.254Z,98004.31
2017-10-16T00:17:39.747Z,98001.92
2017-10-16T00:20:07.255Z,98004.16
2017-10-16T00:22:34.784Z,98004.34
2017-10-16T00:25:02.329Z,98000.97
2017-10-16T00:27:29.873Z,97998.55
2017-10-16T00:29:57.463Z,98001.20
2017-10-16T00:32:24.898Z,98002.20
2017-10-16T00:34:52.488Z,98002.06
2017-10-16T00:37:19.975Z,98004.80
2017-10-16T00:39:47.551Z,98002.91
2017-10-16T00:42:15.181Z,98004.44
2017-10-16T00:44:43.732Z,97994.92
2017-10-16T00:47:11.170Z,97995.34
2017-10-16T00:49:39.000Z,98001.59
2017-10-16T00:52:06.496Z,98000.53
2017-10-16T00:54:34.004Z,97998.66
2017-10-16T00:57:01.883Z,97997.84
2017-10-16T00:59:29.519Z,97992.17
2017-10-16T01:01:57.003Z,97989.67
2017-10-16T01:04:25.028Z,97991.98
2017-10-16T01:06:52.604Z,97996.90
2017-10-16T01:09:20.270Z,97993.31
2017-10-16T01:11:48.138Z,97989.84
2017-10-16T01:14:15.627Z,97992.32
2017-10-16T01:16:43.129Z,97993.27
2017-10-16T01:19:10.925Z,97992.64
2017-10-16T01:21:38.600Z,97993.44
2017-10-16T01:24:06.169Z,97991.63
2017-10-16T01:26:33.818Z,97993.07
2017-10-16T01:29:01.381Z,97986.02
2017-10-16T01:31:28.950Z,97984.13
2017-10-16T01:33:56.822Z,97985.85
2017-10-16T01:36:24.307Z,97985.50
2017-10-16T01:38:51.941Z,97981.31
2017-10-16T01:41:19.801Z,97979.69
2017-10-16T01:43:47.471Z,97973.38
2017-10-16T01:46:15.030Z,97974.79
2017-10-16T01:48:42.920Z,97973.71
2017-10-16T01:51:10.540Z,97979.09
2017-10-16T01:53:38.028Z,97968.64
2017-10-16T01:56:05.581Z,97957.80
2017-10-16T01:58:33.160Z,97962.06
2017-10-16T02:01:00.652Z,97968.00
2017-10-16T02:03:28.163Z,97965.96
2017-10-16T02:05:55.620Z,97963.04
2017-10-16T02:08:23.088Z,97961.88
2017-10-16T02:10:50.620Z,97960.35
2017-10-16T02:13:18.120Z,97963.02
2017-10-16T02:15:45.609Z,97964.09
2017-10-16T02:18:13.085Z,97965.34
2017-10-16T02:20:40.529Z,97964.09
2017-10-16T02:23:08.088Z,97968.86
2017-10-16T02:25:35.916Z,97968.58
2017-10-16T02:28:03.482Z,97970.40
2017-10-16T02:30:31.038Z,97964.63
2017-10-16T02:32:58.651Z,97967.30
2017-10-16T02:35:26.172Z,97959.83
2017-10-16T02:37:53.653Z,97962.20
2017-10-16T02:40:21.178Z,97960.60
2017-10-16T02:42:48.748Z,97955.41
2017-10-16T02:45:16.304Z,97958.21
2017-10-16T02:47:43.831Z,97957.55
2017-10-16T02:50:11.441Z,97957.75
2017-10-16T02:52:38.919Z,97964.03
2017-10-16T02:55:06.509Z,97960.02
2017-10-16T02:57:34.022Z,97967.01
2017-10-16T03:00:01.556Z,97966.81
2017-10-16T03:02:29.096Z,97961.47
2017-10-16T03:04:56.714Z,97964.14
2017-10-16T03:07:24.190Z,97961.66
2017-10-16T03:09:51.931Z,97962.90
2017-10-16T03:12:19.399Z,97961.48
2017-10-16T03:14:46.962Z,97963.10
2017-10-16T03:17:14.634Z,97959.70
2017-10-16T03:19:42.133Z,97959.20
2017-10-16T03:22:09.682Z,97959.31
2017-10-16T03:24:37.563Z,97959.31
2017-10-16T03:27:05.109Z,97960.47
2017-10-16T03:29:32.655Z,97959.03
2017-10-16T03:32:00.220Z,97953.63
2017-10-16T03:34:27.742Z,97955.27
2017-10-16T03:36:55.261Z,97960.11
2017-10-16T03:39:22.924Z,97955.64
2017-10-16T03:41:50.426Z,97962.41
2017-10-16T03:46:51.830Z,97963.31
2017-10-16T03:49:19.378Z,97963.45
2017-10-16T03:51:47.128Z,97961.88
2017-10-16T03:54:14.659Z,97964.52
2017-10-16T03:56:42.118Z,97956.30
2017-10-16T03:59:09.651Z,97956.88
2017-10-16T04:01:37.522Z,97961.38
2017-10-16T04:04:05.441Z,97958.54
2017-10-16T04:06:33.224Z,97965.77
2017-10-16T04:09:00.762Z,97970.04
2017-10-16T04:11:28.428Z,97962.84
2017-10-16T04:13:56.923Z,97962.57
2017-10-16T04:16:24.511Z,97964.64
2017-10-16T04:18:52.102Z,97957.00
2017-10-16T04:21:19.657Z,97959.14
2017-10-16T04:23:47.481Z,97964.75
2017-10-16T04:26:15.075Z,97957.20
2017-10-16T04:28:42.693Z,97954.17
2017-10-16T04:31:10.285Z,97957.34
2017-10-16T04:33:37.901Z,97959.94
2017-10-16T04:36:06.415Z,97953.16
2017-10-16T04:38:34.538Z,97951.75
2017-10-16T04:41:02.023Z,97948.05
2017-10-16T04:43:29.584Z,97954.09
2017-10-16T04:45:57.294Z,97954.62
2017-10-16T04:48:24.812Z,97954.72
2017-10-16T04:50:52.310Z,97955.69
2017-10-16T04:53:20.000Z,97950.25
2017-10-16T04:55:48.212Z,97949.89
2017-10-16T04:58:15.835Z,97941.44
2017-10-16T05:00:43.529Z,97947.65
2017-10-16T05:03:13.812Z,97947.28
2017-10-16T05:05:41.356Z,97947.45
2017-10-16T05:08:09.290Z,97945.42
2017-10-16T05:10:36.782Z,97947.66
2017-10-16T05:13:04.303Z,97944.15
2017-10-16T05:15:31.907Z,97950.39
2017-10-16T05:17:59.600Z,97946.02
2017-10-16T05:20:27.210Z,97947.19
2017-10-16T05:22:54.782Z,97953.14
2017-10-16T05:25:22.318Z,97950.83
2017-10-16T05:27:50.328Z,97948.80
2017-10-16T05:30:20.216Z,97952.00
2017-10-16T05:32:47.738Z,97948.09
2017-10-16T05:35:15.262Z,97950.30
2017-10-16T05:37:42.800Z,97953.50
2017-10-16T05:40:10.323Z,97956.20
2017-10-16T05:42:37.922Z,97950.73
2017-10-16T05:45:05.793Z,97950.59
2017-10-16T05:47:33.373Z,97949.22
2017-10-16T05:50:01.035Z,97949.63
2017-10-16T05:52:28.658Z,97951.82
2017-10-16T05:54:56.229Z,97953.82
2017-10-16T05:57:23.725Z,97955.79
2017-10-16T05:59:51.259Z,97951.41
2017-10-16T06:02:18.804Z,97955.84
2017-10-16T06:04:46.360Z,97959.05
2017-10-16T06:07:13.935Z,97962.44
2017-10-16T06:09:41.497Z,97968.67
2017-10-16T06:12:09.026Z,97967.47
2017-10-16T06:14:36.560Z,97968.36
2017-10-16T06:17:04.148Z,97964.05
2017-10-16T06:19:31.631Z,97967.61
2017-10-16T06:21:59.250Z,97968.64
2017-10-16T06:24:26.722Z,97970.09
2017-10-16T06:26:54.280Z,97977.02
2017-10-16T06:29:21.941Z,97982.85
2017-10-16T06:31:49.385Z,97979.25
2017-10-16T06:34:16.908Z,97983.27
2017-10-16T06:36:44.647Z,97978.38
2017-10-16T06:39:12.173Z,97978.67
2017-10-16T06:41:39.660Z,97982.09
2017-10-16T06:44:07.503Z,97982.77
2017-10-16T06:46:34.984Z,97980.11
2017-10-16T06:49:02.443Z,97980.15
2017-10-16T06:51:30.027Z,97982.00
2017-10-16T06:53:57.614Z,97985.14
2017-10-16T06:56:25.092Z,97988.80
2017-10-16T06:58:52.681Z,97992.49
2017-10-16T07:01:20.288Z,97997.02
2017-10-16T07:03:47.782Z,97997.41
2017-10-16T07:06:15.588Z,97996.87
2017-10-16T07:08:43.107Z,97999.42
2017-10-16T07:11:10.576Z,98000.97
2017-10-16T07:13:38.750Z,98002.65
2017-10-16T07:16:06.257Z,98002.47
2017-10-16T07:18:33.890Z,98002.65
2017-10-16T07:21:01.522Z,98005.78
2017-10-16T07:23:29.079Z,98008.39
2017-10-16T07:25:56.664Z,98008.50
2017-10-16T07:28:24.190Z,98006.98
2017-10-16T07:30:51.697Z,98006.88
2017-10-16T07:33:19.238Z,98009.44
2017-10-16T07:35:47.222Z,98011.93
2017-10-16T07:38:14.744Z,98010.84
2017-10-16T07:40:42.333Z,98012.86
2017-10-16T07:43:10.171Z,98008.28
2017-10-16T07:45:37.725Z,98005.61
2017-10-16T07:48:05.295Z,98013.05
2017-10-16T07:53:06.521Z,98011.36
2017-10-16T07:55:34.276Z,98014.51
2017-10-16T07:58:01.762Z,98018.67
2017-10-16T08:00:29.260Z,98012.02
2017-10-16T08:02:57.326Z,98010.41
2017-10-16T08:05:25.813Z,98013.34
2017-10-16T08:07:53.321Z,98012.55
2017-10-16T08:10:21.205Z,98013.73
2017-10-16T08:12:48.697Z,98006.58
2017-10-16T08:15:16.309Z,98010.69
2017-10-16T08:17:44.256Z,98008.40
2017-10-16T08:20:11.817Z,98011.48
2017-10-16T08:22:39.542Z,98008.67
2017-10-16T08:25:07.193Z,98009.39
2017-10-16T08:27:34.894Z,98011.87
2017-10-16T08:30:02.598Z,98009.43
2017-10-16T08:32:30.442Z,98011.87
2017-10-16T08:34:57.925Z,98003.97
2017-10-16T08:37:25.570Z,98011.18
2017-10-16T08:39:53.936Z,98009.93
2017-10-16T08:42:21.446Z,98009.39
2017-10-16T08:44:49.224Z,98007.54
2017-10-16T08:47:17.150Z,98009.20
2017-10-16T08:49:44.693Z,98002.74
2017-10-16T08:52:12.294Z,98004.69
2017-10-16T08:54:39.956Z,98004.20
2017-10-16T08:57:07.417Z,98000.05
2017-10-16T08:59:35.116Z,98002.63
2017-10-16T09:02:03.182Z,97999.53
2017-10-16T09:04:30.667Z,97998.34
2017-10-16T09:06:58.219Z,98000.68
2017-10-16T09:09:25.865Z,98003.95
2017-10-16T09:11:54.625Z,98004.12
2017-10-16T09:14:22.127Z,97998.52
2017-10-16T09:16:49.622Z,97996.91
2017-10-16T09:19:17.150Z,97996.89
2017-10-16T09:21:44.617Z,97997.37
2017-10-16T09:24:12.600Z,97998.18
2017-10-16T09:26:40.198Z,97991.49
2017-10-16T09:29:07.644Z,97995.20
2017-10-16T09:31:35.184Z,97992.41
2017-10-16T09:34:02.726Z,97988.73
2017-10-16T09:36:30.310Z,97990.13
2017-10-16T09:38:58.263Z,97992.30
2017-10-16T09:41:25.701Z,97982.98
2017-10-16T09:43:53.304Z,97978.57
2017-10-16T09:46:20.876Z,97972.73
2017-10-16T09:48:49.261Z,97971.72
2017-10-16T09:51:16.858Z,97969.47
2017-10-16T09:53:44.439Z,97971.54
2017-10-16T09:56:12.071Z,97973.62
2017-10-16T09:58:40.099Z,97969.25
2017-10-16T10:01:07.904Z,97970.12
2017-10-16T10:03:35.704Z,97969.30
2017-10-16T10:06:03.222Z,97967.47
2017-10-16T10:08:31.111Z,97960.82
2017-10-16T10:10:58.981Z,97956.98
2017-10-16T10:13:26.526Z,97955.47
2017-10-16T10:15:54.491Z,97956.52
2017-10-16T10:18:22.065Z,97957.13
2017-10-16T10:20:49.739Z,97960.52
2017-10-16T10:23:17.615Z,97950.78
2017-10-16T10:25:45.135Z,97949.09
2017-10-16T10:28:12.581Z,97955.92
2017-10-16T10:30:40.093Z,97949.09
2017-10-16T10:33:07.520Z,97949.98
2017-10-16T10:35:35.894Z,97953.30
2017-10-16T10:38:03.428Z,97951.97
2017-10-16T10:40:30.915Z,97948.65
2017-10-16T10:42:59.829Z,97941.78
2017-10-16T10:45:28.256Z,97934.36
2017-10-16T10:47:56.859Z,97931.73
2017-10-16T10:50:24.402Z,97933.50
2017-10-16T10:52:54.452Z,97927.77
2017-10-16T10:55:23.815Z,97928.11
2017-10-16T10:57:51.527Z,97924.73
2017-10-16T11:00:19.489Z,97919.08
2017-10-16T11:02:47.025Z,97918.91
2017-10-16T11:05:17.779Z,97916.86
2017-10-16T11:07:45.280Z,97917.79
2017-10-16T11:10:12.749Z,97913.17
2017-10-16T11:12:40.417Z,97908.84
2017-10-16T11:15:08.093Z,97909.12
2017-10-16T11:17:35.589Z,97907.13
2017-10-16T11:20:03.207Z,97900.06
2017-10-16T11:22:31.074Z,97901.59
2017-10-16T11:24:58.548Z,97898.20
2017-10-16T11:27:27.031Z,97894.63
2017-10-16T11:29:54.534Z,97893.08
2017-10-16T11:32:21.988Z,97886.50
2017-10-16T11:34:49.449Z,97888.69
2017-10-16T11:37:17.290Z,97877.50
2017-10-16T11:39:44.823Z,97879.90
2017-10-16T11:42:13.314Z,97871.52
2017-10-16T11:44:40.967Z,97869.18
2017-10-16T11:47:08.583Z,97867.63
2017-10-16T11:49:36.111Z,97861.48
2017-10-16T11:52:03.712Z,97867.36
2017-10-16T11:54:31.273Z,97864.77
2017-10-16T11:56:58.919Z,97862.62
2017-10-16T11:59:26.495Z,97859.95
2017-10-16T12:01:54.048Z,97859.00
2017-10-16T12:04:21.611Z,97855.92
2017-10-16T12:06:49.260Z,97850.33
2017-10-16T12:09:17.605Z,97850.09
2017-10-16T12:11:45.110Z,97847.94
2017-10-16T12:14:12.831Z,97843.72
2017-10-16T12:16:40.345Z,97846.14
2017-10-16T12:19:07.868Z,97840.98
2017-10-16T12:21:35.842Z,97839.92
2017-10-16T12:24:03.346Z,97838.79
2017-10-16T12:26:30.855Z,97836.68
2017-10-16T12:28:58.900Z,97837.30
2017-10-16T12:31:26.412Z,97831.35
2017-10-16T12:33:53.950Z,97830.92
2017-10-16T12:36:21.555Z,97825.02
2017-10-16T12:38:49.084Z,97830.41
2017-10-16T12:41:16.632Z,97825.45
2017-10-16T12:43:44.245Z,97819.38
2017-10-16T12:46:11.738Z,97815.45
2017-10-16T12:48:39.189Z,97819.92
2017-10-16T12:51:06.764Z,97813.34
2017-10-16T12:53:34.271Z,97814.72
2017-10-16T12:56:01.758Z,97813.75
2017-10-16T12:58:29.289Z,97808.09
2017-10-16T13:00:56.862Z,97800.34
2017-10-16T13:03:24.459Z,97800.55
2017-10-16T13:05:52.474Z,97795.50
2017-10-16T13:08:19.946Z,97791.92
2017-10-16T13:10:47.517Z,97790.87
2017-10-16T13:13:15.174Z,97794.12
2017-10-16T13:15:42.702Z,97786.45
2017-10-16T13:18:10.265Z,97783.18
2017-10-16T13:20:37.846Z,97782.01
2017-10-16T13:23:05.428Z,97786.02
2017-10-16T13:25:33.039Z,97774.83
2017-10-16T13:28:00.591Z,97777.38
2017-10-16T13:30:28.116Z,97775.69
2017-10-16T13:32:55.943Z,97776.63
2017-10-16T13:35:23.420Z,97774.77
2017-10-16T13:37:50.948Z,97777.39
2017-10-16T13:40:18.546Z,97771.17
2017-10-16T13:42:46.963Z,97777.29
2017-10-16T13:45:14.540Z,97774.13
2017-10-16T13:47:42.277Z,97766.31
2017-10-16T13:50:09.884Z,97768.64
2017-10-16T13:52:38.054Z,97771.05
2017-10-16T13:55:06.568Z,97763.16
2017-10-16T13:57:34.350Z,97762.09
2017-10-16T14:00:01.969Z,97761.23
2017-10-16T14:02:29.550Z,97756.72
2017-10-16T14:04:57.228Z,97755.66
2017-10-16T14:07:25.496Z,97751.11
2017-10-16T14:09:53.456Z,97751.86
2017-10-16T14:12:21.315Z,97745.02
2017-10-16T14:14:49.044Z,97744.70
2017-10-16T14:17:16.631Z,97744.27
2017-10-16T14:19:44.508Z,97744.63
2017-10-16T14:22:12.267Z,97743.66
2017-10-16T14:24:39.858Z,97746.29
2017-10-16T14:27:07.911Z,97745.58
2017-10-16T14:29:35.539Z,97743.89
2017-10-16T14:32:03.023Z,97743.86
2017-10-16T14:34:32.399Z,97739.76
2017-10-16T14:37:00.878Z,97742.36
2017-10-16T14:39:28.452Z,97740.49
2017-10-16T14:41:57.740Z,97742.68
2017-10-16T14:44:25.199Z,97740.69
2017-10-16T14:46:52.744Z,97741.64
2017-10-16T14:49:21.026Z,97739.42
2017-10-16T14:51:48.641Z,97740.97
2017-10-16T14:54:16.633Z,97735.39
2017-10-16T14:56:44.341Z,97736.66
2017-10-16T14:59:11.847Z,97744.32
2017-10-16T15:01:39.566Z,97742.92
2017-10-16T15:04:08.627Z,97736.13
2017-10-16T15:06:36.220Z,97734.77
2017-10-16T15:09:03.817Z,97729.69
2017-10-16T15:11:31.525Z,97737.27
2017-10-16T15:13:59.125Z,97728.39
2017-10-16T15:16:26.749Z,97738.89
2017-10-16T15:18:54.376Z,97733.69
2017-10-16T15:21:23.574Z,97740.04
2017-10-16T15:23:51.103Z,97737.67
2017-10-16T15:26:18.832Z,97738.44
2017-10-16T15:28:46.633Z,97732.89
2017-10-16T15:31:14.057Z,97728.70
2017-10-16T15:33:42.532Z,97736.87
2017-10-16T15:36:10.198Z,97738.75
2017-10-16T15:38:39.459Z,97736.45
2017-10-16T15:41:07.141Z,97740.94
2017-10-16T15:43:34.703Z,97742.24
2017-10-16T15:46:02.314Z,97742.33
2017-10-16T15:48:30.173Z,97742.19
2017-10-16T15:50:57.726Z,97741.38
2017-10-16T15:53:25.349Z,97741.27
2017-10-16T15:55:53.165Z,97742.67
2017-10-16T15:58:20.852Z,97743.16
2017-10-16T16:00:48.538Z,97745.21
2017-10-16T16:03:17.436Z,97745.73
2017-10-16T16:05:45.478Z,97746.14
2017-10-16T16:08:15.267Z,97746.41
2017-10-16T16:13:18.167Z,97750.31
2017-10-16T16:15:46.125Z,97749.20
2017-10-16T16:18:13.896Z,97753.33
2017-10-16T16:20:41.628Z,97749.03
2017-10-16T16:23:09.657Z,97751.31
2017-10-16T16:25:37.318Z,97754.91
2017-10-16T16:28:06.139Z,97759.68
2017-10-16T16:30:36.627Z,97754.01
2017-10-16T16:33:04.139Z,97752.98
2017-10-16T16:35:31.610Z,97758.83
2017-10-16T16:37:59.789Z,97762.05
2017-10-16T16:40:27.294Z,97759.14
2017-10-16T16:42:54.800Z,97762.59
2017-10-16T16:45:22.856Z,97761.30
2017-10-16T16:47:50.358Z,97762.80
2017-10-16T16:50:20.869Z,97771.31
2017-10-16T16:52:48.857Z,97767.83
2017-10-16T16:55:16.334Z,97766.70
2017-10-16T16:57:46.123Z,97771.91
2017-10-16T17:00:13.741Z,97772.68
2017-10-16T17:02:41.199Z,97765.13
2017-10-16T17:05:08.758Z,97767.45
2017-10-16T17:07:36.391Z,97775.56
2017-10-16T17:10:03.990Z,97773.83
2017-10-16T17:12:31.548Z,97775.92
2017-10-16T17:14:59.440Z,97775.38
2017-10-16T17:17:27.044Z,97778.01
2017-10-16T17:19:54.597Z,97773.05
2017-10-16T17:22:22.647Z,97770.00
2017-10-16T17:24:50.272Z,97778.73
2017-10-16T17:27:17.788Z,97784.03
2017-10-16T17:29:50.407Z,97787.89
2017-10-16T17:32:17.942Z,97784.87
2017-10-16T17:34:45.573Z,97781.81
2017-10-16T17:37:13.438Z,97779.39
2017-10-16T17:39:40.977Z,97780.94
2017-10-16T17:42:08.464Z,97780.34
2017-10-16T17:44:36.589Z,97780.81
2017-10-16T17:47:04.419Z,97778.38
2017-10-16T17:49:32.011Z,97781.32
2017-10-16T17:51:59.952Z,97773.27
2017-10-16T17:54:27.418Z,97776.98
2017-10-16T17:56:54.917Z,97780.66
2017-10-16T17:59:23.274Z,97782.78
2017-10-16T18:01:51.761Z,97780.00
2017-10-16T18:04:19.289Z,97780.31
2017-10-16T18:06:47.156Z,97785.16
2017-10-16T18:09:14.719Z,97785.02
2017-10-16T18:11:42.311Z,97793.80
2017-10-16T18:14:09.877Z,97794.86
2017-10-16T18:16:37.534Z,97792.08
2017-10-16T18:19:05.129Z,97789.35
2017-10-16T18:21:32.745Z,97797.67
2017-10-16T18:24:00.361Z,97800.97
2017-10-16T18:26:27.935Z,97798.73
2017-10-16T18:28:56.188Z,97797.31
2017-10-16T18:31:23.769Z,97797.86
2017-10-16T18:33:51.385Z,97801.23
2017-10-16T18:36:19.025Z,97794.88
2017-10-16T18:38:47.282Z,97791.13
2017-10-16T18:41:14.835Z,97794.28
2017-10-16T18:43:42.429Z,97796.33
2017-10-16T18:46:09.938Z,97793.97
2017-10-16T18:48:37.401Z,97796.20
2017-10-16T18:51:05.064Z,97795.45
2017-10-16T18:53:32.612Z,97788.48
2017-10-16T18:56:00.163Z,97792.40
2017-10-16T18:58:27.687Z,97792.75
2017-10-16T19:00:55.273Z,97799.36
2017-10-16T19:03:22.731Z,97796.38
2017-10-16T19:05:50.271Z,97795.89
2017-10-16T19:08:17.743Z,97797.73
2017-10-16T19:10:45.281Z,97793.78
2017-10-16T19:13:12.941Z,97795.91
2017-10-16T19:15:40.580Z,97794.92
2017-10-16T19:18:08.243Z,97794.80
2017-10-16T19:20:35.886Z,97798.05
2017-10-16T19:23:03.428Z,97795.41
2017-10-16T19:25:31.010Z,97797.83
2017-10-16T19:27:58.626Z,97795.19
2017-10-16T19:30:26.272Z,97791.11
2017-10-16T19:32:53.825Z,97790.67
2017-10-16T19:35:21.788Z,97794.14
2017-10-16T19:37:49.461Z,97794.20
2017-10-16T19:40:17.106Z,97794.41
2017-10-16T19:42:44.724Z,97792.40
2017-10-16T19:45:12.272Z,97792.45
2017-10-16T19:47:39.892Z,97790.06
2017-10-16T19:50:07.568Z,97788.13
2017-10-16T19:52:35.291Z,97794.75
2017-10-16T19:55:02.869Z,97794.13
2017-10-16T19:57:30.423Z,97792.36
2017-10-16T19:59:58.093Z,97796.03
2017-10-16T20:02:25.656Z,97792.41
2017-10-16T20:04:53.318Z,97790.10
2017-10-16T20:07:20.926Z,97792.70
2017-10-16T20:09:48.537Z,97804.49
2017-10-16T20:12:16.206Z,97809.59
2017-10-16T20:14:43.854Z,97808.59
2017-10-16T20:17:11.472Z,97813.01
2017-10-16T20:19:38.990Z,97817.42
2017-10-16T20:22:06.476Z,97821.45
2017-10-16T20:24:34.099Z,97828.11
2017-10-16T20:27:01.917Z,97833.06
2017-10-16T20:29:29.475Z,97831.66
2017-10-16T20:31:56.986Z,97830.33
2017-10-16T20:34:24.602Z,97837.36
2017-10-16T20:36:52.245Z,97830.47
2017-10-16T20:39:19.886Z,97827.30
2017-10-16T20:41:48.202Z,97825.62
2017-10-16T20:44:15.785Z,97828.97
2017-10-16T20:46:43.794Z,97831.10
2017-10-16T20:49:11.796Z,97828.70
2017-10-16T20:51:39.352Z,97823.41
2017-10-16T20:54:07.005Z,97831.30
2017-10-16T20:56:34.681Z,97830.63
2017-10-16T20:59:02.316Z,97839.00
2017-10-16T21:01:29.814Z,97833.12
2017-10-16T21:03:57.459Z,97827.67
2017-10-16T21:06:25.023Z,97824.99
2017-10-16T21:08:52.513Z,97827.32
2017-10-16T21:11:20.530Z,97825.74
2017-10-16T21:13:49.765Z,97834.74
2017-10-16T21:16:17.294Z,97834.83
2017-10-16T21:18:44.870Z,97832.25
2017-10-16T21:21:12.527Z,97834.03
2017-10-16T21:23:40.232Z,97838.92
2017-10-16T21:26:08.428Z,97832.92
2017-10-16T21:28:36.138Z,97830.91
2017-10-16T21:31:03.699Z,97834.14
2017-10-16T21:33:31.310Z,97843.60
2017-10-16T21:35:59.036Z,97845.22
2017-10-16T21:38:26.505Z,97839.58
2017-10-16T21:40:54.421Z,97834.29
2017-10-16T21:43:21.894Z,97835.13
2017-10-16T21:45:49.444Z,97832.59
2017-10-16T21:48:17.430Z,97828.71
2017-10-16T21:50:44.943Z,97825.55
2017-10-16T21:53:12.375Z,97827.88
2017-10-16T21:55:40.807Z,97827.08
2017-10-16T21:58:08.291Z,97829.55
2017-10-16T22:00:35.890Z,97825.83
2017-10-16T22:03:03.412Z,97827.91
2017-10-16T22:05:30.869Z,97835.33
2017-10-16T22:07:58.324Z,97831.73
2017-10-16T22:10:25.779Z,97833.70
2017-10-16T22:12:53.233Z,97837.23
2017-10-16T22:15:20.839Z,97834.38
2017-10-16T22:17:48.638Z,97830.61
2017-10-16T22:20:16.107Z,97832.31
2017-10-16T22:22:43.720Z,97833.14
2017-10-16T22:25:11.648Z,97844.42
2017-10-16T22:27:39.183Z,97839.52
2017-10-16T22:30:06.698Z,97836.83
2017-10-16T22:32:34.831Z,97842.63
2017-10-16T22:35:02.279Z,97843.11
2017-10-16T22:37:29.811Z,97845.44
2017-10-16T22:39:57.330Z,97845.56
2017-10-16T22:42:24.801Z,97837.52
2017-10-16T22:44:52.362Z,97836.47
2017-10-16T22:47:34.800Z,97833.52
2017-10-16T22:50:02.262Z,97837.14
2017-10-16T22:52:29.751Z,97840.08
2017-10-16T22:54:57.317Z,97837.70
2017-10-16T22:57:24.827Z,97839.33
2017-10-16T22:59:52.360Z,97833.11
2017-10-16T23:02:19.892Z,97838.67
2017-10-16T23:04:47.552Z,97841.09
2017-10-16T23:07:15.021Z,97849.23
2017-10-16T23:09:42.637Z,97845.77
2017-10-16T23:12:10.111Z,97848.80
2017-10-16T23:14:37.540Z,97850.01
2017-10-16T23:17:05.134Z,97851.09
2017-10-16T23:19:32.607Z,97851.28
2017-10-16T23:22:00.189Z,97851.39
2017-10-16T23:24:27.814Z,97845.24
2017-10-16T23:26:55.379Z,97848.59
2017-10-16T23:29:22.807Z,97848.42
2017-10-16T23:31:50.706Z,97844.59
2017-10-16T23:34:18.194Z,97843.06
2017-10-16T23:36:45.677Z,97845.67
2017-10-16T23:39:13.228Z,97852.76
2017-10-16T23:41:40.800Z,97848.74
2017-10-16T23:44:08.244Z,97850.48
2017-10-16T23:46:35.846Z,97843.36
2017-10-16T23:49:03.440Z,97835.41
2017-10-16T23:51:31.025Z,97839.16
2017-10-16T23:53:58.489Z,97841.63
2017-10-16T23:56:25.943Z,97835.48
2017-10-16T23:58:53.380Z,97840.06
